createdAt,value
2022-09-27T09:50:00.619Z,2058.4
2022-09-27T10:00:00.647Z,1699.9
2022-09-27T10:05:05.270Z,2433.5
2022-09-27T10:15:00.679Z,2492.4
2022-09-27T10:20:00.542Z,2583.5
2022-09-27T10:25:00.331Z,3128.2
2022-09-27T10:30:00.414Z,4069.8
2022-09-27T10:35:00.291Z,1582.3
2022-09-27T10:40:00.363Z,5358.2
2022-09-27T10:45:00.345Z,4425
2022-09-27T10:50:00.378Z,4320.5
2022-09-27T10:55:00.255Z,2433.5
2022-09-27T11:00:00.301Z,3568
2022-09-27T11:05:00.302Z,3361
2022-09-27T11:10:00.280Z,5358.2
2022-09-27T11:15:00.281Z,4927.9
2022-09-27T11:20:00.413Z,4269.1
2022-09-27T11:25:00.364Z,3321.1
2022-09-27T11:30:00.308Z,3742.9
2022-09-27T11:35:00.274Z,4642
2022-09-27T11:40:00.300Z,4478.2
2022-09-27T11:45:27.773Z,3611.1
2022-09-27T11:50:00.301Z,3788
2022-09-27T11:55:00.297Z,3611.1
2022-09-27T12:00:00.334Z,3321.1
2022-09-27T12:05:00.277Z,3361
2022-09-27T12:10:00.323Z,4320.5
2022-09-27T12:15:05.769Z,4425
2022-09-27T12:20:00.376Z,4372.4
2022-09-27T12:25:00.309Z,3483.7
2022-09-27T12:30:00.372Z,2552.8
2022-09-27T12:35:00.337Z,3926.3
2022-09-27T12:40:00.432Z,6038.9
2022-09-27T12:45:00.361Z,5487.9
2022-09-27T12:50:02.093Z,1870.6
2022-09-27T12:55:00.349Z,1173.3
2022-09-27T13:00:00.412Z,1659.7
2022-09-27T13:05:00.393Z,744.8
2022-09-27T13:10:00.425Z,2522.4
2022-09-27T13:15:00.382Z,2809
2022-09-27T13:20:00.390Z,3525.6
2022-09-27T13:25:00.385Z,2492.4
2022-09-27T13:30:00.381Z,2775.6
2022-09-27T13:35:00.390Z,2492.4
2022-09-27T13:40:00.443Z,3742.9
2022-09-27T13:45:00.521Z,2376
2022-09-27T13:50:00.568Z,3281.6
2022-09-27T13:55:00.519Z,2522.4
2022-09-27T14:00:00.795Z,1640
2022-09-27T14:05:00.548Z,2265.1
2022-09-27T14:10:00.626Z,1420.8
2022-09-27T14:15:00.622Z,622.5
2022-09-27T14:20:00.507Z,1582.3
2022-09-27T14:25:00.505Z,637.6
2022-09-27T14:30:00.491Z,1028.7
2022-09-27T14:35:00.459Z,880.6
2022-09-27T14:40:00.513Z,539.3
2022-09-27T14:45:00.585Z,859.8
2022-09-27T14:50:00.512Z,693.3
2022-09-27T14:55:00.490Z,350.6
2022-09-27T15:00:00.503Z,701.6
2022-09-27T15:05:00.622Z,736
2022-09-27T15:10:00.515Z,1173.3
2022-09-27T15:15:00.527Z,637.6
2022-09-27T15:20:00.522Z,819.6
2022-09-27T15:25:00.506Z,946.1
2022-09-27T15:30:00.534Z,946.1
2022-09-27T15:35:00.530Z,1306.7
2022-09-27T15:40:02.068Z,456.2
2022-09-27T15:45:00.492Z,3321.1
2022-09-27T15:50:00.596Z,1848.4
2022-09-27T15:55:00.566Z,1962.2
2022-09-27T16:00:00.600Z,2646
2022-09-27T16:05:00.601Z,790.8
2022-09-27T16:10:00.722Z,1260.7
2022-09-27T16:15:00.594Z,1132
2022-09-27T16:20:00.610Z,718.6
2022-09-27T16:25:00.258Z,880.6
2022-09-27T16:30:00.380Z,710.1
2022-09-27T16:35:00.240Z,514.1
2022-09-27T16:40:00.336Z,445.4
2022-09-27T16:45:00.271Z,303.8
2022-09-27T16:50:00.263Z,303.8
2022-09-27T16:55:01.249Z,346.5
2022-09-27T17:00:00.417Z,171.1
2022-09-27T17:05:00.456Z,139.6
2022-09-27T17:10:00.612Z,75
2022-09-27T17:15:00.451Z,38.8
2022-09-27T17:20:00.457Z,18.7
2022-09-27T17:25:00.381Z,15.7
2022-09-27T17:30:00.357Z,6.4
2022-09-27T17:35:00.453Z,2.3
2022-09-27T17:40:00.437Z,1.1
2022-09-27T17:45:00.388Z,1.1
2022-09-27T17:50:00.288Z,1.1
2022-09-27T17:55:00.348Z,1.1
2022-09-27T18:00:00.315Z,1.1
2022-09-27T18:05:00.380Z,1.1
2022-09-27T18:10:00.304Z,1.1
2022-09-27T18:15:00.363Z,1.1
2022-09-27T18:20:00.336Z,1.1
2022-09-27T18:25:01.708Z,1.1
2022-09-27T18:30:00.349Z,1.1
2022-09-27T18:35:00.322Z,1.1
2022-09-27T18:40:00.341Z,1.1
2022-09-27T18:45:00.342Z,1.1
2022-09-27T18:50:00.360Z,1.1
2022-09-27T18:55:00.399Z,1.1
2022-09-27T19:00:00.734Z,1.1
2022-09-27T19:05:00.452Z,1.1
2022-09-27T19:10:00.478Z,1.1
2022-09-27T19:15:00.504Z,1.1
2022-09-27T19:20:00.492Z,1.1
2022-09-27T19:25:00.429Z,1.1
2022-09-27T19:30:00.533Z,1.1
2022-09-27T19:35:00.411Z,1.1
2022-09-27T19:40:00.437Z,1.1
2022-09-27T19:45:00.477Z,1.1
2022-09-27T19:50:00.450Z,1.1
2022-09-27T19:55:00.483Z,1.1
2022-09-27T20:00:00.423Z,1.1
2022-09-27T20:05:02.957Z,1.1
2022-09-27T20:10:00.446Z,1.1
2022-09-27T20:15:00.436Z,1.1
2022-09-27T20:20:00.454Z,1.1
2022-09-27T20:25:00.454Z,1.1
2022-09-27T20:30:00.446Z,1.1
2022-09-27T20:35:00.453Z,1.1
2022-09-27T20:40:00.456Z,1.1
2022-09-27T20:45:00.478Z,1.1
2022-09-27T20:50:00.463Z,1.1
2022-09-27T20:55:00.508Z,1.1
2022-09-27T21:00:00.519Z,1.1
2022-09-27T21:05:00.531Z,1.1
2022-09-27T21:10:00.517Z,1.1
2022-09-27T21:15:00.519Z,1.1
2022-09-27T21:20:00.491Z,1.1
2022-09-27T21:25:00.500Z,1.1
2022-09-27T21:30:00.514Z,1.1
2022-09-27T21:35:00.651Z,1.1
2022-09-27T21:40:00.641Z,1.1
2022-09-27T21:45:00.579Z,1.1
2022-09-27T21:50:00.632Z,1.1
2022-09-27T21:55:00.560Z,1.1
2022-09-27T22:00:00.809Z,1.1
2022-09-27T22:05:00.560Z,1.1
2022-09-27T22:10:00.577Z,1.1
2022-09-27T22:15:00.561Z,1.1
2022-09-27T22:20:00.453Z,1.1
2022-09-27T22:25:00.197Z,1.1
2022-09-27T22:30:00.244Z,1.1
2022-09-27T22:35:00.210Z,1.1
2022-09-27T22:40:00.289Z,1.1
2022-09-27T22:45:00.219Z,1.1
2022-09-27T22:50:00.289Z,1.1
2022-09-27T22:55:00.234Z,1.1
2022-09-27T23:00:00.291Z,1.1
2022-09-27T23:05:00.266Z,1.1
2022-09-27T23:10:00.250Z,1.1
2022-09-27T23:15:00.266Z,1.1
2022-09-27T23:20:00.426Z,1.1
2022-09-27T23:25:00.328Z,1.1
2022-09-27T23:30:00.412Z,1.1
2022-09-27T23:35:00.296Z,1.1
2022-09-27T23:40:00.377Z,1.1
2022-09-27T23:45:00.400Z,1.1
2022-09-27T23:50:00.438Z,1.1
2022-09-27T23:55:00.375Z,1.1
